Nebo, Arkansas
Current Conditions -  °F | °C
As of 8:53 AM on Friday 31 Oct 2014 (Local Time) from KPBF Reporting Station
Clear Clear  
Wind Chill: 56°   Ceiling: Unl
Heat Index: 56°   Visibility: 10mi
Dew Point: 44°   Wind: 16mph
Humidity: 64%   Direction: 340°NNW
Pressure: 30.15"   Gusts: 26mph
Location:  33.924°N, 91.8685°W
Report Text: KPBF 311353Z AUTO 34014G23KT 10SM CLR 13/07 A3015 RMK AO2 SLP209 T01330067
Loading
Personal Weather Stations






























Interactive Weather Map
Tropical Storm Tracking
New forecast layout! Learn more

10-Day Weather Forecast

Advertisements
Track Severe Weather on mobile